Beryl, UT (84714)

8:01 PM MDT on August 31, 2016 (GMT -0600)
APRSWXNET | | Change Station

Elev 5337 ft 37.57 °N, 113.71 °W | Updated 41 minutes ago

Clear
Clear
85 °F
Feels Like 82 °F
N
8
Wind Variable Wind from SW
Gusts 14.0 mph

Today
High -- | Low -- °F
--% Chance of Precip.
Yesterday
High -- | Low -- °F
Precip. -- in
Pressure 29.87 in
Visibility 10.0 miles
Clouds Clear
Heat Index 82 °F
Dew Point 39 °F
Humidity 20%
Rainfall in
Snow Depth Not available.
7:04 AM 8:04 PM
Waning Crescent, 0% visible
METAR KCDC 010153Z AUTO 22008KT 10SM CLR 26/03 A3012 RMK AO2 SLP114 T02560028
Pressure 29.87 in
Visibility 10.0 miles
Clouds Clear
Heat Index 82 °F
Dew Point 39 °F
Humidity 20%
Rainfall in
Snow Depth Not available.
7:04 AM 8:04 PM
Waning Crescent, 0% visible
METAR KCDC 010153Z AUTO 22008KT 10SM CLR 26/03 A3012 RMK AO2 SLP114 T02560028

10-Day Weather Forecast

Almanac

Astronomy

Aug. 31, 2016 Rise Set
Actual Time
Civil Twilight
Nautical Twilight
Astronomical Twilight
Moon
Length of Visible Light
Length of Day
Tomorrow will be .
, % of the Moon is Illuminated

Today's Extremes

State Highs State Lows

Community

WunderPhotos

Upload Photos

1,936,268 photos uploaded!

WunderBlog® & News

Nearby

Air Quality

  Air Quality AQ Index Pollutant
Not available.

Snow Depth

Station Depth Elevation

Earthquake Activity

City Distance Mag. Time & Date
Minimum magnitude displayed is 2.5.

Coastal Water Temperatures

Place Temperature

Stations

Nearby Weather Stations

Station Location Temp. Windchill Dew Point Humidity Wind Precip. Elev Updated Type
                   

Watches & Warnings

There are currently no watches in effect.